New Listings | Alphabetical Listings | Market Rank Listings | PPM Schedule | Arbitrends Schedule | Menu

Nielsen Audio Ratings

Market Rank: 1-50 | 51-100 | 101-150 | 151-200 | 201-250 | 251-300

Rank Market Posted Survey 12+
Population
211 Bend OR 01-26-15 2A 176,500
204 Cedar Rapids IA 01-26-15 2S 182,900
210 Champaign IL 01-26-15 2A 177,800
200 Chico CA 01-26-15 2A 194,000
266 Decatur IL 01-26-15 2A 93,200
205 Duluth-Superior MN-WI 01-26-15 2S 179,400
203 Fargo-Moorhead ND-MN 01-26-15 2S 188,100
213 Florence SC 01-26-15 2A 174,000
268 Grand Forks ND 01-26-15 2A 85,500
191 Laredo TX 01-26-15 2A 206,300
208 Medford-Ashland OR 01-26-15 2A 178,700
212 Winchester VA 01-26-15 2A 174,500
195 Yakima WA 01-26-15 2A 200,400
167 Amarillo TX 01-23-15 2A 251,200
35 Austin TX 01-23-15 PPM 1,586,300
193 Bryan-College Station TX 01-23-15 2A 203,700
201 Cape Cod MA 01-23-15 2A 193,100
178 Columbus GA 01-23-15 2S 232,300
192 Frederick MD 01-23-15 2C 206,200
46 Greensboro-Winston-Salem-High Point 01-23-15 PPM 1,239,100
52 Hartford-New Britain CT 01-23-15 PPM 1,077,600
40 Indianapolis IN 01-23-15 PPM 1,468,300
50 Jacksonville FL 01-23-15 PPM 1,184,500
173 Lubbock TX 01-23-15 2S 241,400
51 Memphis TN 01-23-15 PPM 1,122,600
38 Milwaukee-Racine WI 01-23-15 PPM 1,489,100
45 Nashville TN 01-23-15 PPM 1,339,200
43 Norfolk-VA Beach-Newport News VA 01-23-15 PPM 1,390,200
170 Odessa-Midland TX 01-23-15 2A 246,800

44 Providence RI 01-23-15 PPM 1,388,700
42 Raleigh-Durham NC 01-23-15 PPM 1,430,100
227 Redding CA 01-23-15 2A 155,100
264 Sheboygan WI 01-23-15 2A 97,600
209 Terre Haute IN 01-23-15 2S 178,100
182 Tri-Cities WA 01-23-15 2A 222,900
194 Waco TX 01-23-15 2A 200,400
48 West Palm Beach FL 01-23-15 PPM 1,200,300
169 Anchorage AK 01-22-15 2S 250,600
185 Binghamton NY 01-22-15 2S 214,700
187 Charleston WV 01-22-15 2S 214,600
24 Charlotte-Gastonia NC 01-22-15 PPM 2,108,900
30 Cincinnati OH 01-22-15 PPM 1,781,400
31 Cleveland OH 01-22-15 PPM 1,763,800
37 Columbus OH 01-22-15 PPM 1,567,700
174 Erie PA 01-22-15 2S 240,300
150 Eugene-Springfield OR 01-22-15 2S 313,000
163 Evansville IN 01-22-15 2S 266,900
155 Flagstaff-Prescott AZ 01-22-15 2A 306,200
162 Huntington-Ashland WV 01-22-15 2S 269,500
34 Kansas City MO 01-22-15 PPM 1,668,100
32 Las Vegas NV 01-22-15 PPM 1,700,200
132 Macon GA 01-22-15 2S 370,600
171 Morgantown-Clarksburg-Fairmont WV 01-22-15 2A 245,300
33 Orlando FL 01-22-15 PPM 1,676,600
25 Pittsburgh PA 01-22-15 PPM 2,008,400
23 Portland OR 01-22-15 PPM 2,182,400
159 Rockford IL 01-22-15 2S 288,100
27 Sacramento CA 01-22-15 PPM 1,913,000
29 Salt Lake City UT 01-22-15 PPM 1,791,400

28 San Antonio TX 01-22-15 PPM 1,897,800
161 Tallahassee FL 01-22-15 2S 278,200
249 Valdosta GA 01-22-15 2A 122,600
175 Wausau-Stevens Point WI (Central Wi 01-22-15 2A 239,000
240 Albany GA 01-21-15 2A 136,200
153 Ann Arbor MI 01-21-15 2C 308,800
21 Baltimore MD 01-21-15 PPM 2,373,000
142 Beaumont-Port Arthur TX 01-21-15 2A 327,300
231 Bloomington IL 01-21-15 2S 148,500
10 Boston MA 01-21-15 PPM 4,145,900
19 Denver-Boulder CO 01-21-15 PPM 2,486,500
12 Detroit MI 01-21-15 PPM 3,790,400
188 Dothan AL 01-21-15 2A 212,600
141 Killeen-Temple TX 01-21-15 2A 332,800
242 LaSalle-Peru IL 01-21-15 2A 130,100
221 Lake Charles LA 01-21-15 2A 162,900
11 Miami-Fort Lauderdale FL 01-21-15 PPM 3,858,000
16 Minneapolis-St. Paul MN 01-21-15 PPM 2,827,200
154 Montgomery AL 01-21-15 2S 308,700
180 New Bedford-Fall River MA 01-21-15 2C 228,000
156 Peoria IL 01-21-15 2S 306,200
14 Phoenix AZ 01-21-15 PPM 3,347,700
151 Quad Cities IL 01-21-15 2S 311,700
140 Salisbury-Ocean City MD 01-21-15 2S 335,400
17 San Diego CA 01-21-15 PPM 2,729,200
152 Savannah GA 01-21-15 2S 311,100
13 Seattle-Tacoma WA 01-21-15 PPM 3,585,700
137 Springfield MO 01-21-15 2S 341,400
22 St. Louis MO 01-21-15 PPM 2,318,800
18 Tampa-St. Petersburg FL 01-21-15 PPM 2,501,200

7 Washington DC 01-21-15 PPM 4,720,300
139 Appleton-Oshkosh WI 01-20-15 2S 339,800
9 Atlanta GA 01-20-15 PPM 4,487,600
3 Chicago IL 01-20-15 PPM 7,910,200
110 Corpus Christi TX 01-20-15 2S 465,600
5 Dallas-Ft. Worth TX 01-20-15 PPM 5,559,300
129 Fayetteville (North West Arkansas) 01-20-15 2A 387,600
130 Fayetteville NC 01-20-15 2S 384,800
135 Flint MI 01-20-15 2S 349,100
186 Green Bay WI 01-20-15 2S 214,700
6 Houston-Galveston TX 01-20-15 PPM 5,253,500
127 Lansing-East Lansing MI 01-20-15 2S 402,800
2 Los Angeles CA 01-20-15 PPM 11,179,600
41 Middlesex-Somerset-Union 01-20-15 PPM 1,454,800
20 Nassau-Suffolk NY 01-20-15 PPM 2,454,700
1 New York NY 01-20-15 PPM 16,033,100
8 Philadelphia PA 01-20-15 PPM 4,547,300
134 Reading PA 01-20-15 2A 353,300
125 Reno NV 01-20-15 2S 416,500
26 Riverside-San Bernardino CA 01-20-15 PPM 1,997,700
4 San Francisco CA 01-20-15 PPM 6,377,900
36 San Jose CA 01-20-15 PPM 1,574,200
252 Texarkana TX-AR 01-20-15 2A 115,500
144 Tyler-Longview TX 01-20-15 2S 325,200
131 Youngstown-Warren OH 01-20-15 2S 379,500
124 Bridgeport CT 01-16-15 2S 417,500
271 Cheyenne WY 01-16-15 2A 80,800
117 Fort Collins-Greeley CO 01-16-15 2A 437,600
118 Modesto CA 01-16-15 2S 433,300
119 Morristown NJ 01-16-15 2C 431,500

121 New Haven CT 01-16-15 2S 429,200
120 Oxnard-Ventura CA 01-16-15 2S 430,700
138 Palm Springs CA 01-16-15 2S 341,000
172 San Luis Obispo CA 01-16-15 2A 244,000
206 Santa Barbara CA 01-16-15 2A 179,100
202 Santa Maria-Lompoc CA 01-16-15 2A 191,100
122 Santa Rosa CA 01-16-15 2S 428,000
133 Shreveport LA 01-16-15 4S 353,400
181 South Bend IN 01-16-15 2S 223,900
114 Victor Valley 01-16-15 2S 442,200
146 Atlantic City NJ 01-15-15 2S 320,700
109 Augusta GA 01-15-15 2S 466,000
246 Florence-Muscle Shoals AL 01-15-15 2A 126,900
113 Fort Wayne IN 01-15-15 2S 445,400
126 Jackson MS 01-15-15 4S 414,400
102 Lexington-Fayette KY 01-15-15 2S 492,600
103 Melbourne-Titusville-Cocoa FL 01-15-15 2S 487,800
215 Muncie-Marion IN 01-15-15 2A 172,000
115 Roanoke-Lynchburg VA 01-15-15 2S 440,200
247 Sussex NJ 01-15-15 2A 126,700
149 Trenton NJ 01-15-15 2S 317,000
116 Worcester MA 01-15-15 2S 438,400
100 Boise ID 01-14-15 2S 506,300
107 Chattanooga TN 01-14-15 4S 466,700
93 Daytona Beach FL 01-14-15 2S 532,400
98 Fort Pierce-Stuart FL 01-14-15 2S 508,700
184 Fort Walton Beach FL 01-14-15 2A 219,100
105 Huntsville AL 01-14-15 4S 476,100
95 Lakeland-Winter Haven FL 01-14-15 2S 528,800
128 Pensacola FL 01-14-15 2S 401,000

238 Pueblo CO 01-14-15 2S 136,700
189 Salina-Manhattan KS 01-14-15 2A 209,400
199 Topeka KS 01-14-15 2S 196,500
230 Twin Falls (Sun Valley) ID 01-14-15 2A 151,700
90 Colorado Springs CO 01-13-15 4S 550,200
88 Gainesville-Ocala FL 01-13-15 2S 569,500
269 Hot Springs AR 01-13-15 2A 84,200
99 Madison WI 01-13-15 4S 508,500
97 Mobile AL 01-13-15 4S 515,500
86 Stockton CA 01-13-15 2S 580,700
96 Toledo OH 01-13-15 4S 516,100
101 Wichita KS 01-13-15 4S 499,700
136 Canton OH 01-12-15 2S 346,400
87 Columbia SC 01-12-15 4S 573,200
73 Des Moines IA 01-12-15 4S 682,600
85 Greenville-New Bern NC 01-12-15 4S 585,200
165 Hagerstown-Chambersburg MD 01-12-15 2A 257,100
112 Lancaster PA 01-12-15 2S 445,700
168 Lincoln NE 01-12-15 2S 250,800
84 Little Rock AR 01-12-15 4S 586,600
83 Monterey-Salinas CA 01-12-15 4S 589,800
157 Myrtle Beach SC 01-12-15 2A 304,700
177 New London CT 01-12-15 2A 238,100
94 Spokane WA 01-12-15 4S 532,100
92 Springfield MA 01-12-15 4S 544,100
78 Wilmington DE 01-12-15 2S 613,000
80 Akron OH 01-09-15 4S 605,700
77 Bakersfield CA 01-09-15 4S 630,200
79 Charleston SC 01-09-15 4S 606,500
82 Harrisburg-Lebanon-Carlisle PA 01-09-15 4S 595,500
207 Las Cruces NM 01-09-15 2A 179,000
179 Merced CA 01-09-15 2A 229,800
75 Omaha-Council Bluffs NE 01-09-15 4S 677,000
104 Visalia-Tulare-Hanford CA 01-09-15 2S 487,000
260 Williamsport PA 01-09-15 2A 102,200
111 York PA 01-09-15 4S 463,000
68 Albuquerque NM 01-08-15 4S 749,900
70 Allentown-Bethlehem PA 01-08-15 4S 714,800
253 Battle Creek MI 01-08-15 2A 113,900
196 Danbury CT 01-08-15 2A 198,500
74 El Paso TX 01-08-15 4S 681,400
67 Fresno CA 01-08-15 4S 777,200
61 Ft. Myers-Naples-Marco Island FL 01-08-15 2S 879,600
160 Ft. Smith AR 01-08-15 2A 281,600
63 Honolulu HI 01-08-15 4S 843,500
106 Johnson City-Kingsport TN 01-08-15 4S 471,400
183 Kalamazoo MI 01-08-15 2S 220,100
71 Knoxville TN 01-08-15 4S 699,000
228 Lima OH 01-08-15 2A 154,900
57 McAllen-Brownsville TX 01-08-15 2S 975,500

235 Muskegon MI 01-08-15 2A 142,800
76 Sarasota-Bradenton FL 01-08-15 2S 652,100
147 Stamford-Norwalk CT 01-08-15 2A 318,300
72 Wilkes Barre-Scranton PA 01-08-15 4S 696,900
258 Augusta-Waterville ME 01-07-15 2A 106,300
217 Bangor ME 01-07-15 2S 168,300
143 Burlington-Plattsburgh VT-NY 01-07-15 2S 326,300
176 Concord (Lakes Region) 01-07-15 2S 238,300
64 Dayton OH 01-07-15 4S 836,300
69 Grand Rapids MI 01-07-15 4S 745,200
39 Hudson Valley 01-07-15 2S 1,487,300
225 Lebanon-Hanover-White River Junctio 01-07-15 2C 157,900
198 Manchester NH 01-07-15 2S 198,300
257 Montpelier-Barre-St. Johnsbury VT 01-07-15 2S 107,700
91 Portland ME 01-07-15 2S 546,700
123 Portsmouth-Dover NH 01-07-15 2S 418,800
164 Poughkeepsie NY 01-07-15 2A 258,600
62 Tucson AZ 01-07-15 4S 850,200
66 Tulsa OK 01-07-15 4S 787,800
166 Utica-Rome NY 01-07-15 2S 256,500
65 Albany-Schenectady-Troy NY 01-06-15 4S 805,200
158 Asheville NC 01-06-15 2S 289,300
148 Fredericksburg VA 01-06-15 2S 318,200
222 Olean NY 01-06-15 2A 161,200
89 Syracuse 01-06-15 4S 567,000
190 Tupelo MS 01-06-15 2A 206,700
214 Tuscaloosa AL 01-06-15 2A 172,800
145 Biloxi-Gulfport-Pascagoula MS 01-05-15 2S 322,200
60 Birmingham AL 01-05-15 4S 908,100
56 Buffalo-Niagara Falls NY 01-05-15 4S 983,900

59 Greenville-Spartanburg SC 01-05-15 4S 913,300
107 Lafayette LA 01-05-15 2S 466,700
216 Laurel-Hattiesburg MS 01-05-15 2A 171,600
55 Richmond VA 01-05-15 4S 1,003,700
58 Rochester NY 01-05-15 4S 963,800
81 Baton Rouge LA 12-31-14 4S 604,400
54 Louisville KY 12-31-14 4S 1,009,400
53 Monmouth-Ocean NJ 12-31-14 4S 1,032,700
47 New Orleans LA 12-31-14 4S 1,222,200
49 Oklahoma City OK 12-31-14 4S 1,194,300
15 Puerto Rico 12-31-14 4S 3,128,300
274 Beckley WV 08-07-14 2A 67,800
263 Bismarck ND 08-07-14 2A 99,700
267 Bluefield WV 08-07-14 2A 92,500
254 Harrisonburg VA 08-07-14 2A 113,200
270 Jackson TN 08-07-14 2A 83,400
226 Jonesboro AR 08-07-14 2A 156,000
255 Rapid City SD 08-07-14 2A 111,000
265 San Angelo TX 08-07-14 2A 96,700
262 Sioux City IA 08-07-14 2A 100,700
250 Wichita Falls TX 08-07-14 2A 119,000
237 Abilene TX 08-06-14 2A 140,800
241 Billings MT 08-06-14 2A 130,200
233 Columbia MO 08-06-14 2A 148,100
236 Eau Claire WI 08-06-14 2A 141,400
251 Grand Island-Kearney-Hastings NE 08-06-14 2A 117,300
248 Grand Junction CO 08-06-14 2A 125,700
234 Joplin MO 08-06-14 2A 142,900
219 La Crosse WI 08-06-14 2A 164,200
229 Lafayette IN 08-06-14 2S 154,800

243 Monroe LA 08-06-14 2A 129,400
232 Panama City FL 08-06-14 2A 148,500
244 Parkersburg-Marietta WV 08-06-14 2A 127,900
224 Rochester MN 08-06-14 2A 158,400
245 Wheeling WV 08-06-14 2S 127,200
276 Waterloo-Cedar Falls IA 08-05-14 2A
275 Saginaw-Bay City-Midland MI 07-30-14 2A
273 Casper WY 01-27-14 2A 68,100
239 Lufkin-Nacogdoches TX 01-16-14 2A 136,300
261 Watertown NY 01-06-14 2A 101,400
220 Alexandria LA 07-17-13 2A 163,700
259 Lawton OK 01-28-13 2A 105,700
218 St. Cloud MN 01-24-13 2A 167,900
197 Traverse City-Petoskey MI 01-23-13 2A 198,500
256 Altoona PA 08-07-12 2S 109,600
272 Brunswick GA 08-01-12 2A 69,000
223 Elmira-Corning NY 01-15-10 2A 161,100

Survey Key:
PPM - Portable People Meter
4S - Diary Standard Continuous Measurement
2S - Diary Standard Measurement
2C - Diary Condensed Measurement
2A - Diary 2-book Average

Ratings profiles are Copyright © 2015 Nielsen Audio. May not be quoted or reproduced without the prior written permission of Nielsen Audio.

Return to Menu
Copyright © 1989-2015 RADIO ONLINE ®

Sponsored Links
Radio Station Data For Less
Radio station data for all of the rated markets. Top 400 Metros-Over 12,000 AM/FM/HD $299 includes 1 year free updates.
American Jingle Production
Keep advertisers happy and booked with our custom jingle productions! 770-231-4230
Radio Station Data For Less
Radio station data for all of the rated markets. Top 400 Metros-Over 12,000 AM/FM/HD $299 includes 1 year free updates.